Impacts METAR Board
IDs:

KCVG - Cincinnati Intl, KY, US

Updated at: 0700 UTC 18 Sep 2021
Potential Impact None Slight Moderate High
Time 17/19Z 17/20Z 17/21Z 17/22Z 17/23Z 18/00Z 18/01Z 18/02Z 18/03Z 18/04Z 18/05Z 18/06Z 18/07Z
Temp86 83 75 81 81 77 75 73 71 69 71 70 69
Dewpt66 66 69 67 70 68 68 68 68 66 66 66 66
Altim30.12 30.10 30.10 30.09 30.09 30.09 30.10 30.12 30.11 30.13 30.13 30.13 30.13
VIS10 10 9 10 10 10 10 10 10 10 10 10 10
CIG60 90 47 -- -- -- -- -- -- -- -- -- --
CoverBKNBKNBKNSCTFEWFEWSCTFEWFEWCLRCLRCLRCLR
FltCatVFRVFRVFRVFRVFRVFRVFRVFRVFRVFRVFRVFRVFR
WX-----RA--------------------
WDir01001701800020021018016026000
WSpd5 6 12 5 0 0 3 4 4 5 3 0 0
WGst-- -- -- -- -- -- -- -- -- -- -- -- --
Raw hourly METARs
KCVG 171852Z VRB05KT 10SM SCT042TCU BKN060 BKN080 30/19 A3012 RMK AO2 SLP188 TCU NE-SE MDT CU OHD T03000189
KCVG 171952Z 10006KT 10SM SCT043 SCT060 BKN090 28/19 A3010 RMK AO2 SLP183 MDT CU ALQDS T02830189
KCVG 172052Z 17012KT 9SM -RA BKN047TCU BKN075 BKN100 24/21 A3010 RMK AO2 RAB39 SLP185 WSHFT 2026 VIS LWR S-SW TCU N-NE AND S-SW P0000 60000 T02390206 56012
KCVG 172152Z 18005KT 10SM FEW050 FEW095 SCT120 27/19 A3009 RMK AO2 RAE09 SLP180 TCU DSNT SE P0001 T02720194
KCVG 172252Z 00000KT 10SM FEW050 FEW120 FEW300 27/21 A3009 RMK AO2 SLP179 TCU DSNT SE AND W T02720211
KCVG 172352Z 00000KT 10SM FEW110 FEW300 25/20 A3009 RMK AO2 SLP179 60001 T02500200 10306 20239 56005
KCVG 180052Z 20003KT 10SM SCT300 24/20 A3010 RMK AO2 SLP184 T02390200
KCVG 180152Z 21004KT 10SM FEW250 23/20 A3012 RMK AO2 SLP191 T02280200
KCVG 180252Z 18004KT 10SM FEW250 22/20 A3011 RMK AO2 SLP188 T02170200 50009
KCVG 180352Z 16005KT 10SM CLR 21/19 A3013 RMK AO2 SLP193 T02060189
KCVG 180452Z 26003KT 10SM CLR 22/19 A3013 RMK AO2 SLP193 T02170189 403060183
KCVG 180552Z 00000KT 10SM CLR 21/19 A3013 RMK AO2 SLP192 T02110189 10261 20206 50006
KCVG 180652Z 00000KT 10SM CLR 21/19 A3013 RMK AO2 SLP193 T02060189



Page loaded:  07:40 UTC  |   12:40 AM Pacific  |   01:40 AM Mountain  |   02:40 AM Central  |   03:40 AM Eastern

 

ADVISORIES

FORECASTS

FORECASTS

OBSERVATIONS

USER TOOLS

ABOUT US